Decker, Michigan
Current Conditions -  °F | °C
As of 1:15 PM on Tuesday 21 Oct 2014 (Local Time) from KCFS Reporting Station
Overcast Overcast  
Wind Chill: 39°   Ceiling: 2000
Heat Index: 44°   Visibility: 10mi
Dew Point: 38°   Wind: 10mph
Humidity: 79%   Direction: 10°N
Pressure: 30.09"   Gusts: 18mph
Location:  43.46°N, 83.05°W
Report Text: KCFS 211715Z AUTO 01009G16KT 10SM OVC020 07/04 A3009 RMK AO2 T00690035
Loading
Personal Weather Stations






























Interactive Weather Map
Tropical Storm Tracking
New forecast layout! Learn more

10-Day Weather Forecast

Advertisements
Track Severe Weather on mobile